Terminal Aerodrome Forecast
Issued by NWS

Home | Current Version | Previous Version | Text Only | Print | Product List | Glossary On
Versions: 1 2 3 4 5 6 7 8 9 10 11 12 13 14 15 16 17 18 19 20
000
FTUS41 KAKQ 190540
TAFPHF
TAF
KPHF 190540Z 1906/2006 00000KT 1/2SM FG VV002
      TEMPO 1906/1908 4SM BR SCT002
     FM191100 06006KT 4SM BR BKN250
     FM191300 07010G18KT P6SM BKN250
     FM191700 09015G24KT 4SM BR OVC025
     FM192000 10015G25KT 3SM -RA BR OVC008=

USA.gov is the U.S. government's official web portal to all federal, state and local government web resources and services.